createdAt,value
2019-04-03T00:01:44.382Z,9.40
2019-04-03T00:04:11.828Z,9.30
2019-04-03T00:06:39.177Z,9.30
2019-04-03T00:09:07.107Z,9.20
2019-04-03T00:11:34.583Z,9.20
2019-04-03T00:14:01.909Z,9.10
2019-04-03T00:16:29.261Z,9.10
2019-04-03T00:18:56.494Z,9.10
2019-04-03T00:21:23.864Z,9.10
2019-04-03T00:23:52.619Z,9.10
2019-04-03T00:26:22.075Z,9.10
2019-04-03T00:28:50.715Z,9.10
2019-04-03T00:31:18.946Z,9.10
2019-04-03T00:33:46.283Z,9.10
2019-04-03T00:36:13.638Z,9.10
2019-04-03T00:38:40.983Z,9.10
2019-04-03T00:41:08.318Z,9.10
2019-04-03T00:43:35.637Z,9.10
2019-04-03T00:46:02.957Z,9.10
2019-04-03T00:48:30.242Z,9.10
2019-04-03T00:50:57.674Z,9.10
2019-04-03T00:53:27.335Z,9.10
2019-04-03T00:55:54.749Z,9.10
2019-04-03T00:58:40.664Z,9.10
2019-04-03T01:01:09.296Z,9.10
2019-04-03T01:03:36.692Z,9.10
2019-04-03T01:06:04.336Z,9.10
2019-04-03T01:08:31.712Z,9.10
2019-04-03T01:11:00.435Z,9.10
2019-04-03T01:13:28.204Z,9.10
2019-04-03T01:15:55.577Z,9.00
2019-04-03T01:18:22.911Z,9.00
2019-04-03T01:20:50.235Z,8.90
2019-04-03T01:23:17.458Z,8.90
2019-04-03T01:25:44.800Z,8.90
2019-04-03T01:28:12.051Z,8.90
2019-04-03T01:30:39.459Z,8.90
2019-04-03T01:33:06.822Z,8.80
2019-04-03T01:35:34.132Z,8.80
2019-04-03T01:38:01.438Z,8.80
2019-04-03T01:40:28.785Z,8.80
2019-04-03T01:42:56.107Z,8.80
2019-04-03T01:45:25.271Z,8.80
2019-04-03T01:47:52.559Z,8.70
2019-04-03T01:50:19.761Z,8.70
2019-04-03T01:52:47.102Z,8.70
2019-04-03T01:55:14.401Z,8.80
2019-04-03T01:57:41.764Z,8.80
2019-04-03T02:00:09.122Z,8.80
2019-04-03T02:02:38.213Z,8.70
2019-04-03T02:05:07.376Z,8.70
2019-04-03T02:07:34.699Z,8.60
2019-04-03T02:10:02.067Z,8.60
2019-04-03T02:12:29.402Z,8.60
2019-04-03T02:14:56.728Z,8.60
2019-04-03T02:17:24.222Z,8.60
2019-04-03T02:19:51.615Z,8.60
2019-04-03T02:22:19.068Z,8.60
2019-04-03T02:24:46.610Z,8.60
2019-04-03T02:27:14.032Z,8.60
2019-04-03T02:29:41.343Z,8.60
2019-04-03T02:32:08.589Z,8.60
2019-04-03T02:34:36.646Z,8.60
2019-04-03T02:37:04.519Z,8.70
2019-04-03T02:39:32.146Z,8.70
2019-04-03T02:41:59.595Z,8.70
2019-04-03T02:44:26.926Z,8.70
2019-04-03T02:46:54.346Z,8.70
2019-04-03T02:49:21.570Z,8.70
2019-04-03T02:51:51.887Z,8.70
2019-04-03T02:54:29.274Z,8.70
2019-04-03T02:56:56.608Z,8.70
2019-04-03T02:59:25.957Z,8.70
2019-04-03T03:01:53.101Z,8.70
2019-04-03T03:04:21.974Z,8.70
2019-04-03T03:06:49.671Z,8.70
2019-04-03T03:09:18.082Z,8.70
2019-04-03T03:11:45.405Z,8.70
2019-04-03T03:14:13.453Z,8.70
2019-04-03T03:16:40.985Z,8.70
2019-04-03T03:19:08.400Z,8.60
2019-04-03T03:21:36.322Z,8.60
2019-04-03T03:24:03.901Z,8.60
2019-04-03T03:26:32.062Z,8.60
2019-04-03T03:29:14.206Z,8.60
2019-04-03T03:31:59.138Z,8.60
2019-04-03T03:34:03.007Z,8.60
2019-04-03T03:36:27.724Z,8.60
2019-04-03T03:38:55.371Z,8.60
2019-04-03T03:41:24.387Z,8.60
2019-04-03T03:43:54.249Z,8.50
2019-04-03T03:46:26.277Z,8.60
2019-04-03T03:48:51.871Z,8.50
2019-04-03T03:51:19.288Z,8.50
2019-04-03T03:53:46.927Z,8.50
2019-04-03T03:56:16.306Z,8.50
2019-04-03T03:58:45.704Z,8.50
2019-04-03T04:01:13.180Z,8.50
2019-04-03T04:03:41.712Z,8.50
2019-04-03T04:06:09.585Z,8.50
2019-04-03T04:08:37.786Z,8.50
2019-04-03T04:11:05.319Z,8.50
2019-04-03T04:13:33.442Z,8.40
2019-04-03T04:16:03.877Z,8.40
2019-04-03T04:18:30.757Z,8.40
2019-04-03T04:20:58.123Z,8.40
2019-04-03T04:23:25.513Z,8.40
2019-04-03T04:25:52.733Z,8.40
2019-04-03T04:28:21.083Z,8.40
2019-04-03T04:30:48.416Z,8.40
2019-04-03T04:33:17.223Z,8.40
2019-04-03T04:35:45.125Z,8.30
2019-04-03T04:38:12.485Z,8.30
2019-04-03T04:40:39.837Z,8.30
2019-04-03T04:43:08.257Z,8.30
2019-04-03T04:45:35.851Z,8.30
2019-04-03T04:48:04.029Z,8.30
2019-04-03T04:50:31.339Z,8.30
2019-04-03T04:52:59.327Z,8.30
2019-04-03T04:55:26.759Z,8.30
2019-04-03T04:57:53.995Z,8.20
2019-04-03T05:00:21.300Z,8.20
2019-04-03T05:02:48.863Z,8.20
2019-04-03T05:05:17.853Z,8.20
2019-04-03T05:07:45.089Z,8.20
2019-04-03T05:10:12.337Z,8.10
2019-04-03T05:12:42.607Z,8.10
2019-04-03T05:15:09.419Z,8.10
2019-04-03T05:17:36.625Z,8.00
2019-04-03T05:20:04.475Z,8.00
2019-04-03T05:22:31.677Z,8.00
2019-04-03T05:24:59.593Z,7.90
2019-04-03T05:27:27.338Z,7.90
2019-04-03T05:29:54.692Z,7.80
2019-04-03T05:32:22.542Z,7.90
2019-04-03T05:34:49.877Z,7.90
2019-04-03T05:37:18.064Z,7.90
2019-04-03T05:39:46.735Z,7.80
2019-04-03T05:42:14.058Z,7.80
2019-04-03T05:44:41.376Z,7.80
2019-04-03T05:47:09.038Z,7.80
2019-04-03T05:49:36.239Z,7.80
2019-04-03T05:52:04.563Z,7.80
2019-04-03T05:54:31.995Z,7.80
2019-04-03T05:56:59.346Z,7.80
2019-04-03T05:59:26.913Z,7.70
2019-04-03T06:01:54.269Z,7.80
2019-04-03T06:04:21.573Z,7.80
2019-04-03T06:06:48.805Z,7.70
2019-04-03T06:09:16.746Z,7.80
2019-04-03T06:11:44.158Z,7.80
2019-04-03T06:14:11.388Z,7.80
2019-04-03T06:16:38.905Z,7.90
2019-04-03T06:19:07.278Z,7.90
2019-04-03T06:21:34.555Z,7.90
2019-04-03T06:24:01.853Z,7.90
2019-04-03T06:26:29.172Z,7.90
2019-04-03T06:28:56.479Z,7.90
2019-04-03T06:31:24.341Z,7.90
2019-04-03T06:33:52.953Z,7.90
2019-04-03T06:36:20.300Z,7.90
2019-04-03T06:38:47.852Z,7.90
2019-04-03T06:41:15.105Z,7.90
2019-04-03T06:43:42.560Z,7.90
2019-04-03T06:46:10.431Z,7.90
2019-04-03T06:48:38.096Z,7.90
2019-04-03T06:51:05.326Z,7.90
2019-04-03T06:53:32.575Z,7.90
2019-04-03T06:55:59.767Z,7.90
2019-04-03T06:58:36.929Z,8.00
2019-04-03T07:00:56.245Z,8.00
2019-04-03T07:03:23.734Z,8.10
2019-04-03T07:05:51.349Z,8.10
2019-04-03T07:08:28.673Z,8.10
2019-04-03T07:10:54.785Z,8.20
2019-04-03T07:13:16.852Z,8.30
2019-04-03T07:15:44.189Z,8.30
2019-04-03T07:18:11.525Z,8.30
2019-04-03T07:20:38.898Z,8.40
2019-04-03T07:23:06.208Z,8.40
2019-04-03T07:25:34.444Z,8.50
2019-04-03T07:28:02.009Z,8.50
2019-04-03T07:30:29.319Z,8.50
2019-04-03T07:32:58.309Z,8.40
2019-04-03T07:35:25.712Z,8.40
2019-04-03T07:37:53.014Z,8.40
2019-04-03T07:40:20.946Z,8.50
2019-04-03T07:42:48.628Z,8.50
2019-04-03T07:45:15.861Z,8.50
2019-04-03T07:47:43.408Z,8.50
2019-04-03T07:50:11.633Z,8.50
2019-04-03T07:52:39.168Z,8.60
2019-04-03T07:55:06.484Z,8.60
2019-04-03T07:57:33.836Z,8.60
2019-04-03T08:00:01.033Z,8.60
2019-04-03T08:02:28.318Z,8.60
2019-04-03T08:04:59.262Z,8.60
2019-04-03T08:07:24.772Z,8.50
2019-04-03T08:09:52.109Z,8.50
2019-04-03T08:12:19.306Z,8.40
2019-04-03T08:14:46.656Z,8.40
2019-04-03T08:17:13.857Z,8.40
2019-04-03T08:19:41.495Z,8.40
2019-04-03T08:22:08.867Z,8.40
2019-04-03T08:24:36.235Z,8.50
2019-04-03T08:27:03.723Z,8.60
2019-04-03T08:29:33.725Z,8.80
2019-04-03T08:32:00.256Z,9.00
2019-04-03T08:34:27.467Z,9.10
2019-04-03T08:36:54.814Z,9.20
2019-04-03T08:39:22.148Z,9.20
2019-04-03T08:41:49.711Z,9.20
2019-04-03T08:44:17.036Z,9.40
2019-04-03T08:46:44.632Z,9.40
2019-04-03T08:49:12.078Z,9.40
2019-04-03T08:51:39.273Z,9.40
2019-04-03T08:54:09.819Z,9.40
2019-04-03T08:56:35.676Z,9.40
2019-04-03T08:59:02.891Z,9.40
2019-04-03T09:01:30.305Z,9.40
2019-04-03T09:03:57.628Z,9.40
2019-04-03T09:06:24.951Z,9.40
2019-04-03T09:08:52.542Z,9.40
2019-04-03T09:11:19.970Z,9.50
2019-04-03T09:13:47.412Z,9.50
2019-04-03T09:16:14.726Z,9.40
2019-04-03T09:18:42.146Z,9.40
2019-04-03T09:21:09.513Z,9.30
2019-04-03T09:23:36.709Z,9.20
2019-04-03T09:26:04.015Z,9.20
2019-04-03T09:28:31.258Z,9.20
2019-04-03T09:30:58.804Z,9.30
2019-04-03T09:33:29.009Z,9.30
2019-04-03T09:35:58.398Z,9.30
2019-04-03T09:38:24.435Z,9.40
2019-04-03T09:40:51.752Z,9.30
2019-04-03T09:43:20.100Z,9.30
2019-04-03T09:45:48.235Z,9.40
2019-04-03T09:48:15.442Z,9.40
2019-04-03T09:50:45.706Z,9.60
2019-04-03T09:53:11.860Z,9.70
2019-04-03T09:55:39.088Z,9.80
2019-04-03T09:58:06.349Z,9.80
2019-04-03T10:00:34.158Z,9.90
2019-04-03T10:03:01.825Z,10.10
2019-04-03T10:05:29.717Z,10.20
2019-04-03T10:07:57.165Z,10.20
2019-04-03T10:10:25.889Z,10.30
2019-04-03T10:12:54.231Z,10.30
2019-04-03T10:15:21.972Z,10.20
2019-04-03T10:17:49.320Z,10.10
2019-04-03T10:20:18.220Z,10.10
2019-04-03T10:22:45.791Z,10.10
2019-04-03T10:25:12.999Z,10.10
2019-04-03T10:27:42.539Z,10.20
2019-04-03T10:30:10.802Z,10.10
2019-04-03T10:32:38.010Z,10.10
2019-04-03T10:35:07.353Z,10.00
2019-04-03T10:37:34.532Z,10.00
2019-04-03T10:40:01.842Z,10.00
2019-04-03T10:42:31.208Z,10.10
2019-04-03T10:44:58.336Z,10.20
2019-04-03T10:47:39.371Z,10.20
2019-04-03T10:49:55.319Z,10.20
2019-04-03T10:52:22.680Z,10.10
2019-04-03T10:54:50.461Z,10.00
2019-04-03T10:57:17.856Z,10.00
2019-04-03T10:59:45.298Z,10.00
2019-04-03T11:02:12.637Z,10.20
2019-04-03T11:04:39.975Z,10.20
2019-04-03T11:07:07.313Z,10.30
2019-04-03T11:09:34.701Z,10.30
2019-04-03T11:12:02.058Z,10.40
2019-04-03T11:14:29.405Z,10.50
2019-04-03T11:16:56.877Z,10.60
2019-04-03T11:19:24.300Z,10.50
2019-04-03T11:21:51.856Z,10.50
2019-04-03T11:24:19.303Z,10.50
2019-04-03T11:26:46.742Z,10.60
2019-04-03T11:29:14.011Z,10.70
2019-04-03T11:31:42.637Z,10.70
2019-04-03T11:34:10.568Z,10.80
2019-04-03T11:36:38.188Z,10.80
2019-04-03T11:39:13.467Z,10.90
2019-04-03T11:41:36.643Z,10.90
2019-04-03T11:44:04.100Z,10.90
2019-04-03T11:46:31.458Z,11.00
2019-04-03T11:48:58.883Z,10.90
2019-04-03T11:51:28.934Z,10.90
2019-04-03T11:53:55.462Z,10.90
2019-04-03T11:56:22.854Z,10.90
2019-04-03T11:58:52.069Z,10.80
2019-04-03T12:01:19.776Z,10.70
2019-04-03T12:03:48.274Z,10.70
2019-04-03T12:06:17.976Z,10.80
2019-04-03T12:08:46.070Z,10.70
2019-04-03T12:11:13.647Z,10.70
2019-04-03T12:13:40.970Z,10.80
2019-04-03T12:16:08.397Z,10.80
2019-04-03T12:18:35.654Z,10.70
2019-04-03T12:21:03.093Z,10.60
2019-04-03T12:23:30.415Z,10.60
2019-04-03T12:25:57.615Z,10.60
2019-04-03T12:28:25.123Z,10.60
2019-04-03T12:30:52.625Z,10.60
2019-04-03T12:33:21.189Z,10.60
2019-04-03T12:35:49.477Z,10.60
2019-04-03T12:38:17.210Z,10.60
2019-04-03T12:40:44.512Z,10.60
2019-04-03T12:43:12.213Z,10.60
2019-04-03T12:45:39.513Z,10.70
2019-04-03T12:48:06.860Z,10.70
2019-04-03T12:50:34.050Z,10.60
2019-04-03T12:53:01.733Z,10.60
2019-04-03T12:55:29.186Z,10.60
2019-04-03T12:57:56.511Z,10.50
2019-04-03T13:00:23.917Z,10.60
2019-04-03T13:02:52.421Z,10.60
2019-04-03T13:05:20.260Z,10.70
2019-04-03T13:07:48.014Z,10.60
2019-04-03T13:10:15.590Z,10.50
2019-04-03T13:12:42.921Z,10.50
2019-04-03T13:15:10.826Z,10.50
2019-04-03T13:17:38.268Z,10.50
2019-04-03T13:20:06.644Z,10.70
2019-04-03T13:22:34.391Z,10.80
2019-04-03T13:25:01.863Z,10.80
2019-04-03T13:27:31.749Z,10.80
2019-04-03T13:29:58.417Z,10.80
2019-04-03T13:32:25.782Z,10.80
2019-04-03T13:34:53.129Z,10.80
2019-04-03T13:37:23.237Z,10.70
2019-04-03T13:39:49.555Z,10.60
2019-04-03T13:42:16.755Z,10.50
2019-04-03T13:44:44.060Z,10.50
2019-04-03T13:47:11.574Z,10.40
2019-04-03T13:49:38.956Z,10.40
2019-04-03T13:52:08.989Z,10.40
2019-04-03T13:54:35.662Z,10.40
2019-04-03T13:57:03.151Z,10.40
2019-04-03T13:59:30.397Z,10.40
2019-04-03T14:01:57.601Z,10.40
2019-04-03T14:04:24.960Z,10.40
2019-04-03T14:06:52.682Z,10.40
2019-04-03T14:09:20.702Z,10.40
2019-04-03T14:11:48.077Z,10.50
2019-04-03T14:14:16.103Z,10.50
2019-04-03T14:16:43.494Z,10.50
2019-04-03T14:19:12.717Z,10.60
2019-04-03T14:21:40.039Z,10.60
2019-04-03T14:24:08.945Z,10.60
2019-04-03T14:26:36.365Z,10.60
2019-04-03T14:29:04.248Z,10.50
2019-04-03T14:31:36.523Z,10.50
2019-04-03T14:34:02.128Z,10.40
2019-04-03T14:36:29.427Z,10.30
2019-04-03T14:38:56.704Z,10.20
2019-04-03T14:41:24.072Z,10.20
2019-04-03T14:43:52.016Z,10.20
2019-04-03T14:46:19.424Z,10.20
2019-04-03T14:48:46.956Z,10.30
2019-04-03T14:51:14.350Z,10.20
2019-04-03T14:53:41.575Z,10.30
2019-04-03T14:56:08.781Z,10.20
2019-04-03T14:58:36.199Z,10.20
2019-04-03T15:01:03.409Z,10.10
2019-04-03T15:03:33.436Z,10.10
2019-04-03T15:06:00.368Z,10.10
2019-04-03T15:08:28.153Z,10.20
2019-04-03T15:10:55.714Z,10.20
2019-04-03T15:13:23.280Z,10.20
2019-04-03T15:15:51.017Z,10.20
2019-04-03T15:18:18.639Z,10.20
2019-04-03T15:20:46.744Z,10.20
2019-04-03T15:23:15.323Z,10.20
2019-04-03T15:25:43.616Z,10.20
2019-04-03T15:28:11.059Z,10.20
2019-04-03T15:30:38.406Z,10.10
2019-04-03T15:33:05.865Z,10.10
2019-04-03T15:35:34.323Z,10.00
2019-04-03T15:38:01.676Z,10.00
2019-04-03T15:40:29.817Z,10.00
2019-04-03T15:42:57.429Z,10.00
2019-04-03T15:45:25.505Z,10.00
2019-04-03T15:47:56.768Z,10.00
2019-04-03T15:50:22.976Z,10.00
2019-04-03T15:52:50.759Z,10.00
2019-04-03T15:55:18.628Z,10.00
2019-04-03T15:57:45.880Z,9.90
2019-04-03T16:00:14.676Z,9.90
2019-04-03T16:02:44.446Z,9.90
2019-04-03T16:05:11.353Z,9.80
2019-04-03T16:07:41.566Z,9.80
2019-04-03T16:10:08.366Z,9.70
2019-04-03T16:12:36.495Z,9.60
2019-04-03T16:15:08.522Z,9.60
2019-04-03T16:17:37.583Z,9.50
2019-04-03T16:20:04.808Z,9.50
2019-04-03T16:22:32.329Z,9.50
2019-04-03T16:25:00.012Z,9.40
2019-04-03T16:27:29.124Z,9.50
2019-04-03T16:29:56.464Z,9.40
2019-04-03T16:32:25.926Z,9.40
2019-04-03T16:34:52.992Z,9.40
2019-04-03T16:37:21.383Z,9.30
2019-04-03T16:39:49.438Z,9.30
2019-04-03T16:42:17.122Z,9.30
2019-04-03T16:44:44.606Z,9.20
2019-04-03T16:47:13.038Z,9.20
2019-04-03T16:49:41.137Z,9.20
2019-04-03T16:52:08.454Z,9.10
2019-04-03T16:54:36.350Z,9.10
2019-04-03T16:57:03.806Z,9.10
2019-04-03T16:59:31.711Z,9.00
2019-04-03T17:01:59.233Z,9.00
2019-04-03T17:04:28.595Z,9.00
2019-04-03T17:06:55.819Z,9.00
2019-04-03T17:09:23.193Z,8.90
2019-04-03T17:11:51.148Z,8.90
2019-04-03T17:14:18.501Z,8.90
2019-04-03T17:16:46.968Z,8.90
2019-04-03T17:19:15.815Z,8.80
2019-04-03T17:21:43.863Z,8.80
2019-04-03T17:24:11.160Z,8.80
2019-04-03T17:26:48.859Z,8.70
2019-04-03T17:29:08.095Z,8.70
2019-04-03T17:31:35.488Z,8.60
2019-04-03T17:34:06.034Z,8.70
2019-04-03T17:36:32.116Z,8.70
2019-04-03T17:38:59.844Z,8.60
2019-04-03T17:41:30.487Z,8.60
2019-04-03T17:43:57.924Z,8.60
2019-04-03T17:46:25.164Z,8.60
2019-04-03T17:48:53.733Z,8.60
2019-04-03T17:51:21.750Z,8.60
2019-04-03T17:53:48.940Z,8.50
2019-04-03T17:56:16.286Z,8.50
2019-04-03T17:58:43.516Z,8.50
2019-04-03T18:01:10.967Z,8.50
2019-04-03T18:03:38.353Z,8.40
2019-04-03T18:06:05.774Z,8.40
2019-04-03T18:08:33.215Z,8.40
2019-04-03T18:11:00.686Z,8.40
2019-04-03T18:13:27.893Z,8.30
2019-04-03T18:15:58.546Z,8.30
2019-04-03T18:18:24.584Z,8.40
2019-04-03T18:20:51.817Z,8.40
2019-04-03T18:23:21.412Z,8.40
2019-04-03T18:25:48.282Z,8.30
2019-04-03T18:28:15.636Z,8.30
2019-04-03T18:30:43.093Z,8.30
2019-04-03T18:33:10.501Z,8.30
2019-04-03T18:35:37.820Z,8.30
2019-04-03T18:38:07.737Z,8.30
2019-04-03T18:40:34.702Z,8.30
2019-04-03T18:43:02.052Z,8.30
2019-04-03T18:45:29.367Z,8.30
2019-04-03T18:47:56.819Z,8.20
2019-04-03T18:50:24.187Z,8.20
2019-04-03T18:52:51.597Z,8.20
2019-04-03T18:55:18.917Z,8.20
2019-04-03T18:57:46.143Z,8.20
2019-04-03T19:00:13.679Z,8.20
2019-04-03T19:02:40.912Z,8.20
2019-04-03T19:05:10.086Z,8.20
2019-04-03T19:07:37.502Z,8.20
2019-04-03T19:10:07.604Z,8.30
2019-04-03T19:12:36.225Z,8.20
2019-04-03T19:15:04.078Z,8.20
2019-04-03T19:17:31.291Z,8.20
2019-04-03T19:20:09.799Z,8.20
2019-04-03T19:22:27.796Z,8.10
2019-04-03T19:24:55.144Z,8.20
2019-04-03T19:27:22.498Z,8.20
2019-04-03T19:29:49.880Z,8.20
2019-04-03T19:32:17.137Z,8.20
2019-04-03T19:34:44.465Z,8.20
2019-04-03T19:37:11.900Z,8.10
2019-04-03T19:39:39.282Z,8.10
2019-04-03T19:42:06.617Z,8.10
2019-04-03T19:44:33.969Z,8.10
2019-04-03T19:47:01.200Z,8.10
2019-04-03T19:49:28.576Z,8.00
2019-04-03T19:51:55.903Z,8.00
2019-04-03T19:54:23.293Z,7.90
2019-04-03T19:56:50.631Z,7.90
2019-04-03T19:59:18.059Z,7.90
2019-04-03T20:01:45.413Z,7.80
2019-04-03T20:04:15.765Z,7.80
2019-04-03T20:06:42.021Z,7.80
2019-04-03T20:09:09.355Z,7.80
2019-04-03T20:11:36.781Z,7.80
2019-04-03T20:14:04.129Z,7.80
2019-04-03T20:16:31.455Z,7.80
2019-04-03T20:18:58.785Z,7.80
2019-04-03T20:21:26.133Z,7.80
2019-04-03T20:23:53.465Z,7.80
2019-04-03T20:26:20.794Z,7.70
2019-04-03T20:28:48.118Z,7.70
2019-04-03T20:31:15.439Z,7.70
2019-04-03T20:33:42.940Z,7.60
2019-04-03T20:36:10.332Z,7.60
2019-04-03T20:38:37.786Z,7.60
2019-04-03T20:41:05.214Z,7.60
2019-04-03T20:43:32.593Z,7.60
2019-04-03T20:45:59.960Z,7.60
2019-04-03T20:48:28.281Z,7.60
2019-04-03T20:50:56.137Z,7.50
2019-04-03T20:53:23.452Z,7.50
2019-04-03T20:55:50.807Z,7.50
2019-04-03T20:58:18.228Z,7.40
2019-04-03T21:00:49.198Z,7.40
2019-04-03T21:03:14.901Z,7.40
2019-04-03T21:05:42.125Z,7.50
2019-04-03T21:08:09.478Z,7.40
2019-04-03T21:10:36.802Z,7.40
2019-04-03T21:13:04.188Z,7.50
2019-04-03T21:15:31.515Z,7.40
2019-04-03T21:17:58.844Z,7.40
2019-04-03T21:20:26.186Z,7.40
2019-04-03T21:22:53.547Z,7.30
2019-04-03T21:25:20.775Z,7.30
2019-04-03T21:27:48.118Z,7.30
2019-04-03T21:30:15.694Z,7.30
2019-04-03T21:32:43.052Z,7.30
2019-04-03T21:35:10.369Z,7.20
2019-04-03T21:37:39.738Z,7.20
2019-04-03T21:40:06.822Z,7.20
2019-04-03T21:42:34.304Z,7.20
2019-04-03T21:45:02.743Z,7.20
2019-04-03T21:47:30.927Z,7.20
2019-04-03T21:49:58.275Z,7.10
2019-04-03T21:52:25.623Z,7.10
2019-04-03T21:54:53.066Z,7.10
2019-04-03T21:57:20.731Z,7.10
2019-04-03T21:59:48.077Z,7.10
2019-04-03T22:02:16.260Z,7.10
2019-04-03T22:04:44.092Z,7.00
2019-04-03T22:07:11.449Z,7.00
2019-04-03T22:09:38.929Z,7.00
2019-04-03T22:12:06.591Z,7.00
2019-04-03T22:14:33.990Z,7.00
2019-04-03T22:17:01.373Z,6.90
2019-04-03T22:19:28.727Z,6.90
2019-04-03T22:21:56.095Z,6.90
2019-04-03T22:24:23.453Z,6.90
2019-04-03T22:26:50.812Z,6.90
2019-04-03T22:29:20.437Z,6.90
2019-04-03T22:31:47.395Z,6.90
2019-04-03T22:34:14.729Z,6.90
2019-04-03T22:36:42.074Z,6.90
2019-04-03T22:39:09.762Z,6.90
2019-04-03T22:41:37.101Z,6.90
2019-04-03T22:44:04.325Z,6.90
2019-04-03T22:46:31.552Z,7.00
2019-04-03T22:49:00.033Z,6.90
2019-04-03T22:51:27.973Z,6.90
2019-04-03T22:53:55.309Z,6.90
2019-04-03T22:56:22.542Z,6.90
2019-04-03T22:58:52.573Z,6.90
2019-04-03T23:01:19.053Z,6.90
2019-04-03T23:03:49.044Z,6.90
2019-04-03T23:06:16.859Z,6.90
2019-04-03T23:08:44.665Z,6.80
2019-04-03T23:11:12.017Z,6.80
2019-04-03T23:13:39.439Z,6.80
2019-04-03T23:16:06.736Z,6.80
2019-04-03T23:18:34.085Z,6.80
2019-04-03T23:21:01.437Z,6.80
2019-04-03T23:23:28.775Z,6.80
2019-04-03T23:25:56.109Z,6.80
2019-04-03T23:28:23.461Z,6.80
2019-04-03T23:30:50.791Z,6.80
2019-04-03T23:33:18.145Z,6.80
2019-04-03T23:35:45.497Z,6.90
2019-04-03T23:38:12.835Z,6.90
2019-04-03T23:40:40.189Z,6.90
2019-04-03T23:43:08.962Z,6.80
2019-04-03T23:45:36.849Z,6.80
2019-04-03T23:48:04.221Z,6.80
2019-04-03T23:50:31.581Z,6.80
2019-04-03T23:53:00.725Z,6.70
2019-04-03T23:55:28.185Z,6.70
2019-04-03T23:57:55.543Z,6.70
